sensor_id;sensor_type;location;lat;lon;timestamp;temperature;humidity
68493;HTU21D;55483;51.106;5.984;2023-08-01T00:06:37;19.05;118.99
68493;HTU21D;55483;51.106;5.984;2023-08-01T00:09:34;19.06;118.99
68493;HTU21D;55483;51.106;5.984;2023-08-01T00:12:24;19.06;118.99
68493;HTU21D;55483;51.106;5.984;2023-08-01T00:14:53;19.05;118.99
68493;HTU21D;55483;51.106;5.984;2023-08-01T00:17:19;19.02;118.99
68493;HTU21D;55483;51.106;5.984;2023-08-01T00:19:51;19.06;118.99
68493;HTU21D;55483;51.106;5.984;2023-08-01T00:22:36;19.07;118.99
68493;HTU21D;55483;51.106;5.984;2023-08-01T00:25:28;19.08;118.99
68493;HTU21D;55483;51.106;5.984;2023-08-01T00:28:18;19.09;118.99
68493;HTU21D;55483;51.106;5.984;2023-08-01T00:30:44;19.06;118.99
68493;HTU21D;55483;51.106;5.984;2023-08-01T00:33:09;19.07;118.99
68493;HTU21D;55483;51.106;5.984;2023-08-01T00:35:44;19.09;118.99
68493;HTU21D;55483;51.106;5.984;2023-08-01T00:38:36;19.09;118.99
68493;HTU21D;55483;51.106;5.984;2023-08-01T00:41:06;19.05;118.99
68493;HTU21D;55483;51.106;5.984;2023-08-01T00:43:32;19.03;118.99
68493;HTU21D;55483;51.106;5.984;2023-08-01T00:46:03;19.03;118.99
68493;HTU21D;55483;51.106;5.984;2023-08-01T00:48:41;19.01;118.99
68493;HTU21D;55483;51.106;5.984;2023-08-01T00:51:19;18.96;118.99
68493;HTU21D;55483;51.106;5.984;2023-08-01T00:53:45;18.95;118.99
68493;HTU21D;55483;51.106;5.984;2023-08-01T00:56:11;18.96;118.99
68493;HTU21D;55483;51.106;5.984;2023-08-01T00:58:41;18.97;118.99
68493;HTU21D;55483;51.106;5.984;2023-08-01T01:01:08;18.97;118.99
68493;HTU21D;55483;51.106;5.984;2023-08-01T01:03:34;18.99;118.99
68493;HTU21D;55483;51.106;5.984;2023-08-01T01:06:13;18.99;118.99
68493;HTU21D;55483;51.106;5.984;2023-08-01T01:08:48;18.97;118.99
68493;HTU21D;55483;51.106;5.984;2023-08-01T01:11:14;18.96;118.99
68493;HTU21D;55483;51.106;5.984;2023-08-01T01:21:48;18.85;118.99
68493;HTU21D;55483;51.106;5.984;2023-08-01T01:30:30;18.77;118.99
68493;HTU21D;55483;51.106;5.984;2023-08-01T01:36:14;18.76;118.99
68493;HTU21D;55483;51.106;5.984;2023-08-01T01:38:42;18.69;118.99
68493;HTU21D;55483;51.106;5.984;2023-08-01T01:41:38;18.64;118.99
68493;HTU21D;55483;51.106;5.984;2023-08-01T01:44:19;18.63;118.99
68493;HTU21D;55483;51.106;5.984;2023-08-01T01:46:45;18.62;118.99
68493;HTU21D;55483;51.106;5.984;2023-08-01T01:49:12;18.59;118.99
68493;HTU21D;55483;51.106;5.984;2023-08-01T01:51:37;18.54;118.99
68493;HTU21D;55483;51.106;5.984;2023-08-01T01:54:03;18.56;118.99
68493;HTU21D;55483;51.106;5.984;2023-08-01T01:56:29;18.52;118.99
68493;HTU21D;55483;51.106;5.984;2023-08-01T01:58:58;18.49;118.99
68493;HTU21D;55483;51.106;5.984;2023-08-01T02:01:24;18.48;118.99
68493;HTU21D;55483;51.106;5.984;2023-08-01T02:03:49;18.42;118.99
68493;HTU21D;55483;51.106;5.984;2023-08-01T02:06:15;18.33;118.99
68493;HTU21D;55483;51.106;5.984;2023-08-01T02:08:42;18.22;118.99
68493;HTU21D;55483;51.106;5.984;2023-08-01T02:11:10;18.18;118.99
68493;HTU21D;55483;51.106;5.984;2023-08-01T02:16:35;18.09;118.99
68493;HTU21D;55483;51.106;5.984;2023-08-01T02:19:01;18.07;118.99
68493;HTU21D;55483;51.106;5.984;2023-08-01T02:21:28;18.06;118.99
68493;HTU21D;55483;51.106;5.984;2023-08-01T02:23:53;18.04;118.99
68493;HTU21D;55483;51.106;5.984;2023-08-01T02:26:19;17.99;118.99
68493;HTU21D;55483;51.106;5.984;2023-08-01T02:28:48;17.94;118.99
68493;HTU21D;55483;51.106;5.984;2023-08-01T02:31:36;17.89;118.99
68493;HTU21D;55483;51.106;5.984;2023-08-01T02:34:03;17.83;118.99
68493;HTU21D;55483;51.106;5.984;2023-08-01T02:36:47;17.80;118.99
68493;HTU21D;55483;51.106;5.984;2023-08-01T02:39:14;17.75;118.99
68493;HTU21D;55483;51.106;5.984;2023-08-01T02:41:50;17.67;118.99
68493;HTU21D;55483;51.106;5.984;2023-08-01T02:44:16;17.61;118.99
68493;HTU21D;55483;51.106;5.984;2023-08-01T02:46:41;17.48;118.99
68493;HTU21D;55483;51.106;5.984;2023-08-01T02:49:08;17.43;118.99
68493;HTU21D;55483;51.106;5.984;2023-08-01T02:51:34;17.36;118.99
68493;HTU21D;55483;51.106;5.984;2023-08-01T02:54:06;17.30;118.99
68493;HTU21D;55483;51.106;5.984;2023-08-01T02:56:31;17.24;118.99
68493;HTU21D;55483;51.106;5.984;2023-08-01T02:58:58;17.20;118.99
68493;HTU21D;55483;51.106;5.984;2023-08-01T03:01:32;17.15;118.99
68493;HTU21D;55483;51.106;5.984;2023-08-01T03:03:58;17.14;118.99
68493;HTU21D;55483;51.106;5.984;2023-08-01T03:06:23;17.17;118.99
68493;HTU21D;55483;51.106;5.984;2023-08-01T03:08:50;17.21;118.99
68493;HTU21D;55483;51.106;5.984;2023-08-01T03:11:16;17.23;118.99
68493;HTU21D;55483;51.106;5.984;2023-08-01T03:13:42;17.28;118.99
68493;HTU21D;55483;51.106;5.984;2023-08-01T03:16:11;17.29;118.99
68493;HTU21D;55483;51.106;5.984;2023-08-01T03:18:39;17.25;118.99
68493;HTU21D;55483;51.106;5.984;2023-08-01T03:21:06;17.30;118.99
68493;HTU21D;55483;51.106;5.984;2023-08-01T03:23:35;17.34;118.99
68493;HTU21D;55483;51.106;5.984;2023-08-01T03:26:02;17.34;118.99
68493;HTU21D;55483;51.106;5.984;2023-08-01T03:28:29;17.38;118.99
68493;HTU21D;55483;51.106;5.984;2023-08-01T03:30:55;17.39;118.99
68493;HTU21D;55483;51.106;5.984;2023-08-01T03:33:20;17.40;118.99
68493;HTU21D;55483;51.106;5.984;2023-08-01T03:35:48;17.38;118.99
68493;HTU21D;55483;51.106;5.984;2023-08-01T03:38:14;17.36;118.99
68493;HTU21D;55483;51.106;5.984;2023-08-01T03:40:41;17.33;118.99
68493;HTU21D;55483;51.106;5.984;2023-08-01T03:43:07;17.34;118.99
68493;HTU21D;55483;51.106;5.984;2023-08-01T03:45:39;17.35;118.99
68493;HTU21D;55483;51.106;5.984;2023-08-01T03:48:05;17.37;118.99
68493;HTU21D;55483;51.106;5.984;2023-08-01T03:50:30;17.40;118.99
68493;HTU21D;55483;51.106;5.984;2023-08-01T03:52:57;17.43;118.99
68493;HTU21D;55483;51.106;5.984;2023-08-01T03:55:23;17.41;118.99
68493;HTU21D;55483;51.106;5.984;2023-08-01T03:57:49;17.41;118.99
68493;HTU21D;55483;51.106;5.984;2023-08-01T04:00:14;17.40;118.99
68493;HTU21D;55483;51.106;5.984;2023-08-01T04:02:40;17.38;118.99
68493;HTU21D;55483;51.106;5.984;2023-08-01T04:05:07;17.41;118.99
68493;HTU21D;55483;51.106;5.984;2023-08-01T04:07:37;17.44;118.99
68493;HTU21D;55483;51.106;5.984;2023-08-01T04:10:03;17.43;118.99
68493;HTU21D;55483;51.106;5.984;2023-08-01T04:12:33;17.43;118.99
68493;HTU21D;55483;51.106;5.984;2023-08-01T04:15:01;17.39;118.99
68493;HTU21D;55483;51.106;5.984;2023-08-01T04:17:26;17.37;118.99
68493;HTU21D;55483;51.106;5.984;2023-08-01T04:19:52;17.32;118.99
68493;HTU21D;55483;51.106;5.984;2023-08-01T04:22:20;17.33;118.99
68493;HTU21D;55483;51.106;5.984;2023-08-01T04:24:52;17.33;118.99
68493;HTU21D;55483;51.106;5.984;2023-08-01T04:27:19;17.19;118.99
68493;HTU21D;55483;51.106;5.984;2023-08-01T04:29:47;17.11;118.99
68493;HTU21D;55483;51.106;5.984;2023-08-01T04:32:31;17.04;118.99
68493;HTU21D;55483;51.106;5.984;2023-08-01T04:35:21;16.99;118.99
68493;HTU21D;55483;51.106;5.984;2023-08-01T04:38:10;16.92;118.99
68493;HTU21D;55483;51.106;5.984;2023-08-01T04:40:39;16.89;118.99
68493;HTU21D;55483;51.106;5.984;2023-08-01T04:45:59;16.88;118.99
68493;HTU21D;55483;51.106;5.984;2023-08-01T04:48:25;16.93;118.99
68493;HTU21D;55483;51.106;5.984;2023-08-01T04:50:50;16.99;118.99
68493;HTU21D;55483;51.106;5.984;2023-08-01T04:53:16;17.06;118.99
68493;HTU21D;55483;51.106;5.984;2023-08-01T04:55:43;17.18;118.99
68493;HTU21D;55483;51.106;5.984;2023-08-01T04:58:11;17.30;118.99
68493;HTU21D;55483;51.106;5.984;2023-08-01T05:00:40;17.39;118.99
68493;HTU21D;55483;51.106;5.984;2023-08-01T05:03:07;17.48;118.99
68493;HTU21D;55483;51.106;5.984;2023-08-01T05:05:34;17.60;118.99
68493;HTU21D;55483;51.106;5.984;2023-08-01T05:08:00;17.85;118.99
68493;HTU21D;55483;51.106;5.984;2023-08-01T05:10:26;17.82;118.99
68493;HTU21D;55483;51.106;5.984;2023-08-01T05:12:53;17.78;118.99
68493;HTU21D;55483;51.106;5.984;2023-08-01T05:15:19;17.88;118.99
68493;HTU21D;55483;51.106;5.984;2023-08-01T05:17:46;17.96;118.99
68493;HTU21D;55483;51.106;5.984;2023-08-01T05:20:12;18.49;118.99
68493;HTU21D;55483;51.106;5.984;2023-08-01T05:22:39;18.55;118.99
68493;HTU21D;55483;51.106;5.984;2023-08-01T05:25:14;18.40;118.99
68493;HTU21D;55483;51.106;5.984;2023-08-01T05:27:41;18.27;118.99
68493;HTU21D;55483;51.106;5.984;2023-08-01T05:30:07;18.14;118.99
68493;HTU21D;55483;51.106;5.984;2023-08-01T05:32:33;18.06;118.99
68493;HTU21D;55483;51.106;5.984;2023-08-01T05:34:58;18.07;118.99
68493;HTU21D;55483;51.106;5.984;2023-08-01T05:37:24;18.10;118.99
68493;HTU21D;55483;51.106;5.984;2023-08-01T05:39:50;18.09;118.99
68493;HTU21D;55483;51.106;5.984;2023-08-01T05:42:15;18.07;118.99
68493;HTU21D;55483;51.106;5.984;2023-08-01T05:44:41;18.12;118.99
68493;HTU21D;55483;51.106;5.984;2023-08-01T05:47:08;18.12;118.99
68493;HTU21D;55483;51.106;5.984;2023-08-01T05:49:35;18.10;118.99
68493;HTU21D;55483;51.106;5.984;2023-08-01T05:52:02;18.11;118.99
68493;HTU21D;55483;51.106;5.984;2023-08-01T05:54:29;18.17;118.99
68493;HTU21D;55483;51.106;5.984;2023-08-01T05:56:54;18.20;118.99
68493;HTU21D;55483;51.106;5.984;2023-08-01T05:59:21;18.24;118.99
68493;HTU21D;55483;51.106;5.984;2023-08-01T06:01:48;18.30;118.99
68493;HTU21D;55483;51.106;5.984;2023-08-01T06:04:15;18.28;118.99
68493;HTU21D;55483;51.106;5.984;2023-08-01T06:06:41;18.55;118.99
68493;HTU21D;55483;51.106;5.984;2023-08-01T06:09:08;19.56;116.21
68493;HTU21D;55483;51.106;5.984;2023-08-01T06:11:33;20.76;109.79
68493;HTU21D;55483;51.106;5.984;2023-08-01T06:14:00;21.69;98.55
68493;HTU21D;55483;51.106;5.984;2023-08-01T06:16:26;22.53;92.69
68493;HTU21D;55483;51.106;5.984;2023-08-01T06:18:51;23.87;84.92
68493;HTU21D;55483;51.106;5.984;2023-08-01T06:21:17;24.54;76.95
68493;HTU21D;55483;51.106;5.984;2023-08-01T06:23:42;24.09;76.44
68493;HTU21D;55483;51.106;5.984;2023-08-01T06:26:11;23.28;79.04
68493;HTU21D;55483;51.106;5.984;2023-08-01T06:28:38;22.43;82.62
68493;HTU21D;55483;51.106;5.984;2023-08-01T06:31:10;21.62;88.02
68493;HTU21D;55483;51.106;5.984;2023-08-01T06:33:35;21.48;90.77
68493;HTU21D;55483;51.106;5.984;2023-08-01T06:36:05;21.22;91.80
68493;HTU21D;55483;51.106;5.984;2023-08-01T06:38:30;21.30;94.48
68493;HTU21D;55483;51.106;5.984;2023-08-01T06:40:56;21.54;91.70
68493;HTU21D;55483;51.106;5.984;2023-08-01T06:46:07;21.55;92.23
68493;HTU21D;55483;51.106;5.984;2023-08-01T06:48:40;21.85;88.85
68493;HTU21D;55483;51.106;5.984;2023-08-01T06:51:06;22.32;86.81
68493;HTU21D;55483;51.106;5.984;2023-08-01T06:56:21;24.89;73.35
68493;HTU21D;55483;51.106;5.984;2023-08-01T06:58:47;24.51;72.38
68493;HTU21D;55483;51.106;5.984;2023-08-01T07:01:13;24.03;72.09
68493;HTU21D;55483;51.106;5.984;2023-08-01T07:03:38;24.05;74.89
68493;HTU21D;55483;51.106;5.984;2023-08-01T07:06:06;24.45;72.11
68493;HTU21D;55483;51.106;5.984;2023-08-01T07:08:53;24.49;71.00
68493;HTU21D;55483;51.106;5.984;2023-08-01T07:11:20;24.97;72.03
68493;HTU21D;55483;51.106;5.984;2023-08-01T07:16:27;25.06;67.66
68493;HTU21D;55483;51.106;5.984;2023-08-01T07:18:55;24.69;70.76
68493;HTU21D;55483;51.106;5.984;2023-08-01T07:21:22;25.36;68.84
68493;HTU21D;55483;51.106;5.984;2023-08-01T07:29:13;22.88;75.71
68493;HTU21D;55483;51.106;5.984;2023-08-01T07:32:03;22.22;79.62
68493;HTU21D;55483;51.106;5.984;2023-08-01T07:34:40;21.69;82.48
68493;HTU21D;55483;51.106;5.984;2023-08-01T07:37:57;21.36;85.42
68493;HTU21D;55483;51.106;5.984;2023-08-01T07:40:25;21.34;86.13
68493;HTU21D;55483;51.106;5.984;2023-08-01T07:42:56;21.21;87.35
68493;HTU21D;55483;51.106;5.984;2023-08-01T07:45:27;21.14;88.58
68493;HTU21D;55483;51.106;5.984;2023-08-01T07:47:57;21.58;90.17
68493;HTU21D;55483;51.106;5.984;2023-08-01T07:50:35;23.96;80.30
68493;HTU21D;55483;51.106;5.984;2023-08-01T07:53:01;25.12;71.75
68493;HTU21D;55483;51.106;5.984;2023-08-01T07:55:34;25.99;68.78
68493;HTU21D;55483;51.106;5.984;2023-08-01T07:58:00;25.89;65.80
68493;HTU21D;55483;51.106;5.984;2023-08-01T08:00:31;24.73;68.81
68493;HTU21D;55483;51.106;5.984;2023-08-01T08:03:15;23.76;72.74
68493;HTU21D;55483;51.106;5.984;2023-08-01T08:05:41;23.46;74.53
68493;HTU21D;55483;51.106;5.984;2023-08-01T08:08:07;23.17;75.92
68493;HTU21D;55483;51.106;5.984;2023-08-01T08:10:37;22.99;77.11
68493;HTU21D;55483;51.106;5.984;2023-08-01T08:13:02;22.80;78.36
68493;HTU21D;55483;51.106;5.984;2023-08-01T08:15:58;22.50;79.91
68493;HTU21D;55483;51.106;5.984;2023-08-01T08:18:36;22.37;80.17
68493;HTU21D;55483;51.106;5.984;2023-08-01T08:21:01;22.19;81.38
68493;HTU21D;55483;51.106;5.984;2023-08-01T08:23:27;22.37;81.37
68493;HTU21D;55483;51.106;5.984;2023-08-01T08:25:53;22.56;80.40
68493;HTU21D;55483;51.106;5.984;2023-08-01T08:28:28;22.95;80.59
68493;HTU21D;55483;51.106;5.984;2023-08-01T08:30:56;23.81;75.25
68493;HTU21D;55483;51.106;5.984;2023-08-01T08:33:23;23.92;73.19
68493;HTU21D;55483;51.106;5.984;2023-08-01T08:35:59;24.15;73.87
68493;HTU21D;55483;51.106;5.984;2023-08-01T08:38:25;25.79;69.18
68493;HTU21D;55483;51.106;5.984;2023-08-01T08:49:22;26.43;63.06
68493;HTU21D;55483;51.106;5.984;2023-08-01T08:51:49;27.06;59.73
68493;HTU21D;55483;51.106;5.984;2023-08-01T08:54:25;27.66;59.34
68493;HTU21D;55483;51.106;5.984;2023-08-01T08:56:58;28.60;56.31
68493;HTU21D;55483;51.106;5.984;2023-08-01T08:59:43;28.54;54.15
68493;HTU21D;55483;51.106;5.984;2023-08-01T09:02:10;28.53;54.25
68493;HTU21D;55483;51.106;5.984;2023-08-01T09:04:36;28.19;55.69
68493;HTU21D;55483;51.106;5.984;2023-08-01T09:07:06;28.02;56.08
68493;HTU21D;55483;51.106;5.984;2023-08-01T09:09:33;27.39;57.50
68493;HTU21D;55483;51.106;5.984;2023-08-01T09:12:01;26.50;59.95
68493;HTU21D;55483;51.106;5.984;2023-08-01T09:14:30;25.79;62.34
68493;HTU21D;55483;51.106;5.984;2023-08-01T09:17:09;25.35;63.92
68493;HTU21D;55483;51.106;5.984;2023-08-01T09:20:06;24.79;65.37
68493;HTU21D;55483;51.106;5.984;2023-08-01T09:22:45;24.23;67.25
68493;HTU21D;55483;51.106;5.984;2023-08-01T09:25:12;24.08;68.53
68493;HTU21D;55483;51.106;5.984;2023-08-01T09:27:38;24.40;67.78
68493;HTU21D;55483;51.106;5.984;2023-08-01T09:30:06;24.85;65.88
68493;HTU21D;55483;51.106;5.984;2023-08-01T09:32:33;24.89;64.70
68493;HTU21D;55483;51.106;5.984;2023-08-01T09:34:59;24.65;63.98
68493;HTU21D;55483;51.106;5.984;2023-08-01T09:37:39;24.39;65.37
68493;HTU21D;55483;51.106;5.984;2023-08-01T09:40:06;24.24;67.39
68493;HTU21D;55483;51.106;5.984;2023-08-01T09:42:44;24.20;68.12
68493;HTU21D;55483;51.106;5.984;2023-08-01T09:45:15;24.35;67.08
68493;HTU21D;55483;51.106;5.984;2023-08-01T09:47:42;24.53;65.56
68493;HTU21D;55483;51.106;5.984;2023-08-01T09:50:09;24.42;65.88
68493;HTU21D;55483;51.106;5.984;2023-08-01T09:52:37;24.13;65.51
68493;HTU21D;55483;51.106;5.984;2023-08-01T09:55:03;24.60;67.94
68493;HTU21D;55483;51.106;5.984;2023-08-01T09:57:30;26.11;64.88
68493;HTU21D;55483;51.106;5.984;2023-08-01T10:00:02;28.01;58.20
68493;HTU21D;55483;51.106;5.984;2023-08-01T10:02:50;29.06;53.36
68493;HTU21D;55483;51.106;5.984;2023-08-01T10:05:19;28.92;52.87
68493;HTU21D;55483;51.106;5.984;2023-08-01T10:07:51;28.90;50.68
68493;HTU21D;55483;51.106;5.984;2023-08-01T10:10:50;28.53;52.18
68493;HTU21D;55483;51.106;5.984;2023-08-01T10:16:33;30.22;47.73
68493;HTU21D;55483;51.106;5.984;2023-08-01T10:19:09;31.20;44.25
68493;HTU21D;55483;51.106;5.984;2023-08-01T10:21:36;31.59;42.84
68493;HTU21D;55483;51.106;5.984;2023-08-01T10:24:03;31.98;42.02
68493;HTU21D;55483;51.106;5.984;2023-08-01T10:26:31;32.29;40.45
68493;HTU21D;55483;51.106;5.984;2023-08-01T10:28:56;32.84;40.30
68493;HTU21D;55483;51.106;5.984;2023-08-01T10:31:37;32.13;40.97
68493;HTU21D;55483;51.106;5.984;2023-08-01T10:34:23;32.54;41.36
68493;HTU21D;55483;51.106;5.984;2023-08-01T10:37:07;33.27;39.03
68493;HTU21D;55483;51.106;5.984;2023-08-01T10:39:35;32.23;39.78
68493;HTU21D;55483;51.106;5.984;2023-08-01T10:42:04;31.92;40.13
68493;HTU21D;55483;51.106;5.984;2023-08-01T10:44:31;31.78;40.04
68493;HTU21D;55483;51.106;5.984;2023-08-01T10:47:03;32.12;39.60
68493;HTU21D;55483;51.106;5.984;2023-08-01T10:49:56;31.45;41.27
68493;HTU21D;55483;51.106;5.984;2023-08-01T10:52:24;31.55;40.81
68493;HTU21D;55483;51.106;5.984;2023-08-01T10:55:02;31.39;43.09
68493;HTU21D;55483;51.106;5.984;2023-08-01T10:57:29;32.42;41.35
68493;HTU21D;55483;51.106;5.984;2023-08-01T11:03:11;31.16;41.26
68493;HTU21D;55483;51.106;5.984;2023-08-01T11:05:37;31.69;40.29
68493;HTU21D;55483;51.106;5.984;2023-08-01T11:08:05;32.57;39.52
68493;HTU21D;55483;51.106;5.984;2023-08-01T11:10:32;33.65;38.51
68493;HTU21D;55483;51.106;5.984;2023-08-01T11:12:59;34.63;37.11
68493;HTU21D;55483;51.106;5.984;2023-08-01T11:15:25;35.15;35.35
68493;HTU21D;55483;51.106;5.984;2023-08-01T11:17:55;34.03;35.88
68493;HTU21D;55483;51.106;5.984;2023-08-01T11:20:23;33.00;38.83
68493;HTU21D;55483;51.106;5.984;2023-08-01T11:22:58;31.97;41.75
68493;HTU21D;55483;51.106;5.984;2023-08-01T11:25:39;30.84;43.85
68493;HTU21D;55483;51.106;5.984;2023-08-01T11:28:10;30.05;46.05
68493;HTU21D;55483;51.106;5.984;2023-08-01T11:30:39;29.32;47.55
68493;HTU21D;55483;51.106;5.984;2023-08-01T11:33:21;28.82;48.30
68493;HTU21D;55483;51.106;5.984;2023-08-01T11:35:52;29.12;48.80
68493;HTU21D;55483;51.106;5.984;2023-08-01T11:38:21;30.61;45.63
68493;HTU21D;55483;51.106;5.984;2023-08-01T11:40:48;31.99;41.88
68493;HTU21D;55483;51.106;5.984;2023-08-01T11:43:15;32.16;41.26
68493;HTU21D;55483;51.106;5.984;2023-08-01T11:45:51;31.96;42.36
68493;HTU21D;55483;51.106;5.984;2023-08-01T11:48:17;31.44;42.90
68493;HTU21D;55483;51.106;5.984;2023-08-01T11:50:44;30.97;43.08
68493;HTU21D;55483;51.106;5.984;2023-08-01T11:53:21;30.38;44.58
68493;HTU21D;55483;51.106;5.984;2023-08-01T11:55:48;29.86;45.59
68493;HTU21D;55483;51.106;5.984;2023-08-01T11:58:14;29.36;46.90
68493;HTU21D;55483;51.106;5.984;2023-08-01T12:00:40;28.98;47.96
68493;HTU21D;55483;51.106;5.984;2023-08-01T12:03:08;28.49;48.64
68493;HTU21D;55483;51.106;5.984;2023-08-01T12:05:40;28.55;50.85
68493;HTU21D;55483;51.106;5.984;2023-08-01T12:08:14;29.00;50.37
68493;HTU21D;55483;51.106;5.984;2023-08-01T12:10:45;29.45;50.60
68493;HTU21D;55483;51.106;5.984;2023-08-01T12:13:22;29.86;48.66
68493;HTU21D;55483;51.106;5.984;2023-08-01T12:15:52;29.67;47.27
68493;HTU21D;55483;51.106;5.984;2023-08-01T12:20:48;29.31;48.31
68493;HTU21D;55483;51.106;5.984;2023-08-01T12:23:13;29.11;48.32
68493;HTU21D;55483;51.106;5.984;2023-08-01T12:25:39;28.78;49.49
68493;HTU21D;55483;51.106;5.984;2023-08-01T12:28:04;28.75;50.27
68493;HTU21D;55483;51.106;5.984;2023-08-01T12:30:30;29.02;49.65
68493;HTU21D;55483;51.106;5.984;2023-08-01T12:32:56;29.02;48.20
68493;HTU21D;55483;51.106;5.984;2023-08-01T12:35:22;28.87;47.99
68493;HTU21D;55483;51.106;5.984;2023-08-01T12:38:11;28.97;47.46
68493;HTU21D;55483;51.106;5.984;2023-08-01T12:40:37;28.97;47.43
68493;HTU21D;55483;51.106;5.984;2023-08-01T12:43:03;29.11;47.97
68493;HTU21D;55483;51.106;5.984;2023-08-01T12:56:16;28.46;46.22
68493;HTU21D;55483;51.106;5.984;2023-08-01T12:58:42;28.56;47.06
68493;HTU21D;55483;51.106;5.984;2023-08-01T13:01:07;28.69;47.91
68493;HTU21D;55483;51.106;5.984;2023-08-01T13:03:33;28.72;48.92
68493;HTU21D;55483;51.106;5.984;2023-08-01T13:05:59;28.69;49.38
68493;HTU21D;55483;51.106;5.984;2023-08-01T13:08:25;28.54;49.59
68493;HTU21D;55483;51.106;5.984;2023-08-01T13:10:50;28.37;48.63
68493;HTU21D;55483;51.106;5.984;2023-08-01T13:13:16;28.16;48.27
68493;HTU21D;55483;51.106;5.984;2023-08-01T13:15:42;27.98;48.26
68493;HTU21D;55483;51.106;5.984;2023-08-01T13:18:09;27.84;48.12
68493;HTU21D;55483;51.106;5.984;2023-08-01T13:20:36;27.87;47.64
68493;HTU21D;55483;51.106;5.984;2023-08-01T13:23:02;27.91;47.35
68493;HTU21D;55483;51.106;5.984;2023-08-01T13:25:29;28.01;48.09
68493;HTU21D;55483;51.106;5.984;2023-08-01T13:27:55;28.30;47.08
68493;HTU21D;55483;51.106;5.984;2023-08-01T13:30:20;28.47;47.17
68493;HTU21D;55483;51.106;5.984;2023-08-01T13:32:46;28.50;46.61
68493;HTU21D;55483;51.106;5.984;2023-08-01T13:35:12;28.40;47.05
68493;HTU21D;55483;51.106;5.984;2023-08-01T13:37:38;28.20;46.97
68493;HTU21D;55483;51.106;5.984;2023-08-01T13:40:04;28.00;47.19
68493;HTU21D;55483;51.106;5.984;2023-08-01T13:42:31;27.94;47.79
68493;HTU21D;55483;51.106;5.984;2023-08-01T13:44:57;27.94;47.83
68493;HTU21D;55483;51.106;5.984;2023-08-01T13:47:23;27.93;47.98
68493;HTU21D;55483;51.106;5.984;2023-08-01T13:49:48;27.87;48.46
68493;HTU21D;55483;51.106;5.984;2023-08-01T13:52:14;27.71;48.59
68493;HTU21D;55483;51.106;5.984;2023-08-01T13:54:39;27.82;48.54
68493;HTU21D;55483;51.106;5.984;2023-08-01T13:57:06;28.01;48.55
68493;HTU21D;55483;51.106;5.984;2023-08-01T13:59:32;28.10;48.03
68493;HTU21D;55483;51.106;5.984;2023-08-01T14:01:58;28.02;48.31
68493;HTU21D;55483;51.106;5.984;2023-08-01T14:04:23;27.96;48.42
68493;HTU21D;55483;51.106;5.984;2023-08-01T14:06:49;27.76;47.90
68493;HTU21D;55483;51.106;5.984;2023-08-01T14:09:15;27.60;48.67
68493;HTU21D;55483;51.106;5.984;2023-08-01T14:11:41;27.44;48.53
68493;HTU21D;55483;51.106;5.984;2023-08-01T14:14:06;27.41;48.81
68493;HTU21D;55483;51.106;5.984;2023-08-01T14:16:32;27.46;49.04
68493;HTU21D;55483;51.106;5.984;2023-08-01T14:19:01;27.44;48.95
68493;HTU21D;55483;51.106;5.984;2023-08-01T14:21:26;27.49;49.83
68493;HTU21D;55483;51.106;5.984;2023-08-01T14:24:01;27.52;49.98
68493;HTU21D;55483;51.106;5.984;2023-08-01T14:26:27;27.37;49.88
68493;HTU21D;55483;51.106;5.984;2023-08-01T14:28:52;27.13;50.66
68493;HTU21D;55483;51.106;5.984;2023-08-01T14:31:18;26.83;51.33
68493;HTU21D;55483;51.106;5.984;2023-08-01T14:33:44;26.57;53.14
68493;HTU21D;55483;51.106;5.984;2023-08-01T14:36:10;26.37;53.29
68493;HTU21D;55483;51.106;5.984;2023-08-01T14:38:38;26.42;52.94
68493;HTU21D;55483;51.106;5.984;2023-08-01T14:41:04;26.58;52.52
68493;HTU21D;55483;51.106;5.984;2023-08-01T14:43:30;26.71;52.77
68493;HTU21D;55483;51.106;5.984;2023-08-01T14:45:56;26.80;52.77
68493;HTU21D;55483;51.106;5.984;2023-08-01T14:48:22;26.95;52.20
68493;HTU21D;55483;51.106;5.984;2023-08-01T14:50:48;27.02;50.87
68493;HTU21D;55483;51.106;5.984;2023-08-01T14:53:14;26.91;50.39
68493;HTU21D;55483;51.106;5.984;2023-08-01T14:55:39;26.76;50.18
68493;HTU21D;55483;51.106;5.984;2023-08-01T14:58:05;26.66;50.14
68493;HTU21D;55483;51.106;5.984;2023-08-01T15:00:37;26.50;50.22
68493;HTU21D;55483;51.106;5.984;2023-08-01T15:03:03;26.39;50.18
68493;HTU21D;55483;51.106;5.984;2023-08-01T15:05:29;26.07;50.27
68493;HTU21D;55483;51.106;5.984;2023-08-01T15:07:55;25.73;49.94
68493;HTU21D;55483;51.106;5.984;2023-08-01T15:10:21;25.36;50.56
68493;HTU21D;55483;51.106;5.984;2023-08-01T15:12:49;25.10;51.88
68493;HTU21D;55483;51.106;5.984;2023-08-01T16:01:36;24.83;53.16
68493;HTU21D;55483;51.106;5.984;2023-08-01T16:04:01;24.85;53.97
68493;HTU21D;55483;51.106;5.984;2023-08-01T16:06:27;24.90;53.60
68493;HTU21D;55483;51.106;5.984;2023-08-01T16:08:52;24.88;53.84
68493;HTU21D;55483;51.106;5.984;2023-08-01T16:11:18;24.76;53.81
68493;HTU21D;55483;51.106;5.984;2023-08-01T16:13:44;24.70;54.42
68493;HTU21D;55483;51.106;5.984;2023-08-01T16:16:43;24.53;55.01
68493;HTU21D;55483;51.106;5.984;2023-08-01T16:19:22;24.20;55.23
68493;HTU21D;55483;51.106;5.984;2023-08-01T16:21:49;23.92;55.79
68493;HTU21D;55483;51.106;5.984;2023-08-01T16:26:57;23.49;56.61
68493;HTU21D;55483;51.106;5.984;2023-08-01T16:29:22;23.25;57.13
68493;HTU21D;55483;51.106;5.984;2023-08-01T16:32:00;23.00;57.87
68493;HTU21D;55483;51.106;5.984;2023-08-01T16:34:27;22.86;58.56
68493;HTU21D;55483;51.106;5.984;2023-08-01T16:36:54;22.78;59.24
68493;HTU21D;55483;51.106;5.984;2023-08-01T16:39:19;22.80;59.39
68493;HTU21D;55483;51.106;5.984;2023-08-01T16:41:45;22.81;59.70
68493;HTU21D;55483;51.106;5.984;2023-08-01T16:44:12;22.82;59.73
68493;HTU21D;55483;51.106;5.984;2023-08-01T16:46:38;22.84;59.56
68493;HTU21D;55483;51.106;5.984;2023-08-01T16:49:03;22.83;59.35
68493;HTU21D;55483;51.106;5.984;2023-08-01T16:51:29;22.77;58.86
68493;HTU21D;55483;51.106;5.984;2023-08-01T16:53:55;22.77;58.71
68493;HTU21D;55483;51.106;5.984;2023-08-01T16:56:21;22.75;58.46
68493;HTU21D;55483;51.106;5.984;2023-08-01T16:58:47;22.76;58.61
68493;HTU21D;55483;51.106;5.984;2023-08-01T17:01:13;22.91;58.41
68493;HTU21D;55483;51.106;5.984;2023-08-01T17:03:40;22.99;58.58
68493;HTU21D;55483;51.106;5.984;2023-08-01T17:06:15;23.08;58.12
68493;HTU21D;55483;51.106;5.984;2023-08-01T17:08:41;23.09;57.72
68493;HTU21D;55483;51.106;5.984;2023-08-01T17:11:07;23.03;57.81
68493;HTU21D;55483;51.106;5.984;2023-08-01T17:13:36;22.97;58.32
68493;HTU21D;55483;51.106;5.984;2023-08-01T17:16:01;23.03;58.69
68493;HTU21D;55483;51.106;5.984;2023-08-01T17:18:27;23.02;58.71
68493;HTU21D;55483;51.106;5.984;2023-08-01T17:20:53;22.93;59.03
68493;HTU21D;55483;51.106;5.984;2023-08-01T17:23:19;22.78;59.99